Leisure City, Florida
Current Conditions -  °F | °C
As of 2:27 PM on Tuesday 21 Oct 2014 (Local Time) from KHST Reporting Station
Light Rain Light Rain  
Wind Chill: 75°   Ceiling: Unl
Heat Index: 75°   Visibility: 10mi
Dew Point: 72°   Wind: 10mph
Humidity: 89%   Direction: 220°SW
Pressure: 29.94"   Gusts: NA
Location:  25.5°N, 80.43°W
Report Text: KHST 211827Z AUTO 22009KT 10SM -RA SCT006 24/22 A2994 RMK AO2
Loading
Personal Weather Stations






























Interactive Weather Map
Tropical Storm Tracking
New forecast layout! Learn more

10-Day Weather Forecast

Advertisements
Track Severe Weather on mobile